Terminal Aerodrome Forecast
Issued by NWS

Home | Current Version | Previous Version | Text Only | Print | Product List | Glossary On
Versions: 1 2 3 4 5 6 7 8 9 10 11 12 13 14 15 16 17 18 19 20 21 22 23 24 25
000
FTUS41 KBOX 150541 AAB
TAFBED
TAF AMD
KBED 150541Z 1506/1606 22006KT P6SM SCT012 BKN040
     FM150900 24004KT P6SM BKN050
     FM151200 26005KT P6SM SCT250
     FM151400 29005KT P6SM FEW250
     FM151900 27007KT P6SM SKC
     FM160000 27004KT P6SM BKN200=

USA.gov is the U.S. government's official web portal to all federal, state and local government web resources and services.